createdAt,value
2023-02-08T00:01:08.526Z,89.12
2023-02-08T00:06:13.559Z,78.06
2023-02-08T00:11:15.996Z,96.96
2023-02-08T00:16:18.956Z,85.15
2023-02-08T00:21:21.709Z,100.00
2023-02-08T00:26:24.211Z,85.42
2023-02-08T00:31:26.739Z,100.00
2023-02-08T00:36:29.168Z,100.00
2023-02-08T00:41:31.615Z,100.00
2023-02-08T00:46:34.265Z,100.00
2023-02-08T00:51:36.769Z,90.80
2023-02-08T00:56:39.138Z,83.99
2023-02-08T01:01:42.502Z,100.00
2023-02-08T01:06:45.018Z,87.68
2023-02-08T01:11:47.632Z,92.94
2023-02-08T01:16:50.337Z,83.97
2023-02-08T01:21:53.072Z,100.00
2023-02-08T01:26:55.471Z,94.59
2023-02-08T01:31:57.914Z,84.29
2023-02-08T01:37:00.315Z,81.08
2023-02-08T01:42:03.035Z,85.75
2023-02-08T01:47:05.507Z,100.00
2023-02-08T01:52:17.006Z,79.35
2023-02-08T01:57:22.271Z,79.27
2023-02-08T02:02:26.506Z,93.31
2023-02-08T02:07:31.392Z,91.17
2023-02-08T02:12:36.681Z,96.04
2023-02-08T02:17:40.415Z,92.28
2023-02-08T02:22:59.706Z,82.42
2023-02-08T02:28:14.177Z,84.29
2023-02-08T02:33:28.548Z,80.27
2023-02-08T02:39:03.414Z,100.00
2023-02-08T02:44:18.457Z,76.72
2023-02-08T02:49:45.752Z,96.93
2023-02-08T02:54:53.180Z,77.19
2023-02-08T02:59:57.625Z,91.51
2023-02-08T03:05:00.136Z,100.00
2023-02-08T03:10:40.681Z,100.00
2023-02-08T03:16:13.170Z,100.00
2023-02-08T03:21:42.447Z,97.46
2023-02-08T03:27:24.473Z,95.92
2023-02-08T03:32:47.108Z,100.00
2023-02-08T03:37:58.314Z,100.00
2023-02-08T03:43:07.397Z,100.00
2023-02-08T03:48:14.119Z,100.00
2023-02-08T03:53:20.908Z,96.90
2023-02-08T03:58:32.875Z,92.24
2023-02-08T04:03:36.685Z,100.00
2023-02-08T04:08:39.050Z,100.00
2023-02-08T04:13:41.454Z,100.00
2023-02-08T04:18:43.900Z,92.40
2023-02-08T04:23:46.313Z,96.06
2023-02-08T04:28:48.744Z,91.47
2023-02-08T04:33:51.389Z,100.00
2023-02-08T04:38:54.068Z,100.00
2023-02-08T04:43:56.653Z,93.65
2023-02-08T04:48:59.200Z,100.00
2023-02-08T04:54:01.653Z,100.00
2023-02-08T04:59:04.519Z,100.00
2023-02-08T05:04:07.177Z,93.06
2023-02-08T05:09:10.430Z,100.00
2023-02-08T05:14:12.946Z,90.55
2023-02-08T05:19:15.419Z,100.00
2023-02-08T05:24:18.121Z,100.00
2023-02-08T05:29:20.718Z,100.00
2023-02-08T05:34:23.444Z,100.00
2023-02-08T05:39:25.862Z,88.66
2023-02-08T05:44:28.347Z,100.00
2023-02-08T05:49:31.129Z,100.00
2023-02-08T05:54:33.599Z,100.00
2023-02-08T05:59:36.040Z,83.60
2023-02-08T06:04:39.262Z,100.00
2023-02-08T06:09:41.719Z,96.02
2023-02-08T06:14:45.057Z,92.68
2023-02-08T06:19:47.691Z,100.00
2023-02-08T06:24:50.380Z,100.00
2023-02-08T06:29:53.648Z,94.04
2023-02-08T06:34:56.912Z,100.00
2023-02-08T06:40:00.704Z,100.00
2023-02-08T06:45:03.591Z,100.00
2023-02-08T06:50:06.831Z,100.00
2023-02-08T06:55:09.423Z,100.00
2023-02-08T07:00:12.556Z,95.21
2023-02-08T07:05:15.332Z,100.00
2023-02-08T07:10:17.880Z,100.00
2023-02-08T07:15:20.577Z,96.83
2023-02-08T07:20:23.585Z,100.00
2023-02-08T07:25:26.255Z,100.00
2023-02-08T07:30:28.829Z,100.00
2023-02-08T07:35:31.321Z,100.00
2023-02-08T07:40:34.114Z,99.92
2023-02-08T07:45:38.559Z,97.96
2023-02-08T07:50:41.242Z,82.26
2023-02-08T07:55:46.077Z,85.14
2023-02-08T08:00:48.510Z,92.87
2023-02-08T08:05:53.492Z,84.33
2023-02-08T08:10:57.449Z,78.58
2023-02-08T08:15:59.906Z,91.25
2023-02-08T08:21:02.885Z,81.16
2023-02-08T08:26:14.710Z,94.05
2023-02-08T08:31:22.536Z,78.33
2023-02-08T08:36:25.445Z,94.59
2023-02-08T08:41:28.639Z,80.09
2023-02-08T08:46:31.297Z,84.65
2023-02-08T08:51:35.484Z,100.00
2023-02-08T08:56:38.147Z,99.43
2023-02-08T09:01:42.400Z,76.33
2023-02-08T09:06:44.871Z,70.18
2023-02-08T09:11:47.837Z,71.94
2023-02-08T09:16:50.511Z,66.98
2023-02-08T09:21:53.124Z,68.66
2023-02-08T09:26:55.944Z,70.71
2023-02-08T09:31:58.480Z,72.90
2023-02-08T09:37:00.956Z,66.73
2023-02-08T09:42:40.419Z,63.47
2023-02-08T09:48:00.608Z,58.98
2023-02-08T09:53:34.346Z,54.59
2023-02-08T09:58:41.532Z,59.06
2023-02-08T10:03:45.230Z,56.73
2023-02-08T10:08:52.411Z,63.30
2023-02-08T10:14:42.918Z,58.05
2023-02-08T10:19:59.894Z,64.12
2023-02-08T10:25:23.643Z,50.87
2023-02-08T10:30:26.579Z,51.72
2023-02-08T10:35:37.096Z,46.04
2023-02-08T10:40:41.764Z,51.70
2023-02-08T10:45:53.628Z,57.03
2023-02-08T10:50:56.337Z,54.30
2023-02-08T10:55:58.819Z,54.61
2023-02-08T11:01:02.280Z,52.76
2023-02-08T11:06:05.288Z,47.85
2023-02-08T11:11:10.411Z,54.28
2023-02-08T11:16:22.607Z,49.82
2023-02-08T11:21:33.665Z,47.00
2023-02-08T11:26:40.048Z,37.47
2023-02-08T11:32:14.526Z,36.77
2023-02-08T11:37:26.524Z,33.22
2023-02-08T11:42:38.048Z,29.35
2023-02-08T11:47:40.601Z,26.77
2023-02-08T11:52:46.352Z,26.32
2023-02-08T11:58:14.833Z,26.09
2023-02-08T12:03:27.598Z,27.47
2023-02-08T12:09:02.848Z,27.39
2023-02-08T12:14:10.726Z,30.79
2023-02-08T12:20:04.810Z,33.00
2023-02-08T12:25:24.967Z,36.50
2023-02-08T12:30:47.768Z,32.52
2023-02-08T12:36:05.806Z,36.06
2023-02-08T12:41:32.265Z,36.12
2023-02-08T12:46:46.714Z,32.87
2023-02-08T12:52:15.822Z,35.69
2023-02-08T12:57:21.612Z,32.88
2023-02-08T13:03:11.107Z,33.45
2023-02-08T13:08:45.803Z,35.83
2023-02-08T13:14:04.851Z,34.83
2023-02-08T13:19:31.823Z,34.65
2023-02-08T13:24:40.277Z,34.96
2023-02-08T13:29:47.189Z,30.74
2023-02-08T13:34:55.537Z,31.80
2023-02-08T13:40:21.598Z,39.23
2023-02-08T13:45:45.405Z,40.62
2023-02-08T13:50:52.014Z,42.07
2023-02-08T13:56:01.284Z,46.13
2023-02-08T14:01:15.143Z,42.17
2023-02-08T14:06:26.187Z,49.92
2023-02-08T14:11:46.742Z,39.90
2023-02-08T14:17:04.241Z,48.84
2023-02-08T14:22:12.247Z,47.96
2023-02-08T14:27:32.613Z,45.98
2023-02-08T14:32:40.935Z,45.83
2023-02-08T14:37:44.941Z,57.96
2023-02-08T14:42:58.731Z,44.42
2023-02-08T14:48:21.284Z,48.27
2023-02-08T14:53:59.950Z,49.25
2023-02-08T14:59:09.243Z,49.93
2023-02-08T15:04:13.530Z,45.42
2023-02-08T15:09:23.248Z,46.40
2023-02-08T15:14:26.152Z,56.11
2023-02-08T15:19:38.577Z,52.07
2023-02-08T15:24:55.091Z,45.63
2023-02-08T15:29:57.432Z,51.41
2023-02-08T15:35:04.767Z,52.68
2023-02-08T15:40:07.691Z,51.03
2023-02-08T15:45:30.844Z,49.25
2023-02-08T15:50:33.928Z,52.74
2023-02-08T15:55:51.367Z,49.25
2023-02-08T16:00:54.054Z,47.63
2023-02-08T16:06:02.089Z,48.11
2023-02-08T16:11:20.975Z,48.06
2023-02-08T16:16:35.350Z,48.38
2023-02-08T16:21:42.361Z,48.92
2023-02-08T16:27:04.542Z,49.23
2023-02-08T16:32:32.092Z,48.89
2023-02-08T16:37:35.936Z,49.22
2023-02-08T16:42:40.555Z,49.91
2023-02-08T16:47:47.484Z,50.03
2023-02-08T16:53:01.596Z,49.58
2023-02-08T16:58:03.976Z,49.55
2023-02-08T17:03:06.111Z,49.65
2023-02-08T17:08:16.001Z,50.20
2023-02-08T17:13:21.179Z,50.38
2023-02-08T17:18:23.695Z,49.83
2023-02-08T17:23:27.012Z,50.32
2023-02-08T17:28:29.323Z,50.64
2023-02-08T17:33:36.437Z,51.00
2023-02-08T17:38:40.053Z,51.96
2023-02-08T17:43:42.242Z,52.14
2023-02-08T17:48:47.262Z,53.01
2023-02-08T17:53:51.433Z,52.42
2023-02-08T17:58:56.017Z,52.29
2023-02-08T18:04:01.013Z,53.27
2023-02-08T18:09:03.794Z,54.21
2023-02-08T18:14:06.271Z,54.02
2023-02-08T18:19:08.848Z,53.85
2023-02-08T18:24:12.062Z,54.62
2023-02-08T18:29:14.894Z,55.51
2023-02-08T18:34:18.685Z,54.82
2023-02-08T18:39:23.356Z,54.37
2023-02-08T18:44:26.205Z,54.54
2023-02-08T18:49:29.461Z,54.79
2023-02-08T18:54:32.452Z,55.28
2023-02-08T18:59:34.611Z,54.62
2023-02-08T19:04:38.956Z,54.64
2023-02-08T19:09:41.190Z,54.98
2023-02-08T19:14:44.089Z,54.74
2023-02-08T19:19:46.767Z,55.75
2023-02-08T19:24:48.906Z,58.41
2023-02-08T19:29:56.356Z,57.11
2023-02-08T19:34:58.934Z,58.67
2023-02-08T19:40:01.573Z,60.70
2023-02-08T19:45:04.278Z,59.95
2023-02-08T19:50:07.283Z,56.10
2023-02-08T19:55:10.921Z,57.49
2023-02-08T20:00:22.872Z,61.35
2023-02-08T20:05:26.389Z,59.81
2023-02-08T20:10:29.085Z,60.80
2023-02-08T20:15:31.739Z,60.09
2023-02-08T20:20:34.803Z,57.00
2023-02-08T20:25:37.406Z,58.45
2023-02-08T20:30:41.569Z,56.38
2023-02-08T20:35:44.441Z,57.67
2023-02-08T20:40:47.107Z,59.90
2023-02-08T20:45:49.560Z,58.05
2023-02-08T20:50:52.169Z,57.76
2023-02-08T20:55:54.769Z,59.26
2023-02-08T21:00:57.614Z,64.93
2023-02-08T21:06:00.133Z,57.72
2023-02-08T21:11:03.072Z,58.42
2023-02-08T21:16:07.431Z,58.33
2023-02-08T21:21:10.493Z,57.92
2023-02-08T21:26:16.049Z,60.78
2023-02-08T21:31:22.184Z,58.55
2023-02-08T21:36:25.543Z,58.50
2023-02-08T21:41:31.441Z,59.10
2023-02-08T21:46:34.023Z,60.29
2023-02-08T21:51:55.892Z,61.73
2023-02-08T21:57:03.437Z,61.18
2023-02-08T22:02:08.283Z,59.41
2023-02-08T22:07:10.705Z,60.60
2023-02-08T22:12:18.506Z,60.33
2023-02-08T22:17:20.990Z,60.68
2023-02-08T22:22:24.245Z,59.47
2023-02-08T22:27:27.773Z,60.26
2023-02-08T22:32:30.638Z,61.50
2023-02-08T22:37:34.064Z,62.93
2023-02-08T22:42:38.055Z,62.33
2023-02-08T22:47:40.609Z,62.37
2023-02-08T22:52:43.148Z,61.72
2023-02-08T22:57:45.798Z,61.72
2023-02-08T23:02:48.269Z,62.51
2023-02-08T23:07:50.691Z,62.59
2023-02-08T23:12:53.154Z,63.15
2023-02-08T23:17:55.687Z,64.14
2023-02-08T23:22:58.354Z,64.00
2023-02-08T23:28:01.131Z,64.00
2023-02-08T23:33:03.762Z,63.51
2023-02-08T23:38:06.194Z,62.63
2023-02-08T23:43:09.267Z,63.46
2023-02-08T23:48:11.703Z,64.98
2023-02-08T23:53:14.125Z,63.60
2023-02-08T23:58:16.548Z,63.05
